Venango Regional Airport
KFKL : now visible

Airfield :











YOU CAN JOIN US ON...

 
LOGIN :

Register | Disclaimer

   EN    FR    IT 

 









Legend :    VFR   Marginal VFR   IFR   Intensive IFR   Very Intensive IFR
Visi :
Ceiling :
>= 8 km
>= 3000ft
5 to 8 km
1000 to 3000 ft
1500m to 5 km
500 to 1000 ft
800 to 1500m
200 to 500 ft
< 800m
< 200 ft
Symbols :   Thunderstorms  Fog  Heavy snow  Heavy precipitations  Wind > 20 kt






- Airport Elevation : 1540 ft


KFKL - Venango Regional

CURRENT METAR :
  • 170756Z AUTO 24007KT 10SM OVC009 M03/M04 A2958 RMK AO2 CIG 007V012 SLP035 T10281039 FZRANO

EXPIRED METARs :
  • 170705Z AUTO 25007KT 10SM BKN013 OVC020 M03/M04 A2958 RMK AO2 FZRANO
  • 170656Z AUTO 25007KT 230V290 10SM SCT015 BKN020 OVC028 M03/M04 A2958 RMK AO2 SLP032 T10281044 FZRANO
  • 170616Z AUTO 24008KT 10SM BKN019 OVC038 M03/M05 A2957 RMK AO2 FZRANO
  • 170604Z AUTO 24007KT 10SM SCT019 OVC038 M03/M04 A2957 RMK AO2 FZRANO
  • 170556Z AUTO 24007KT 10SM BKN019 BKN031 OVC038 M03/M04 A2957 RMK AO2 SNE29 SLP029 P0000 60001 T10281044 11017 21028 55001 FZRANO
  • 170539Z AUTO 24007KT 10SM FEW023 OVC035 M03/M04 A2957 RMK AO2 SNE29 P0000 FZRANO

TAF KFKL
Valid from the 17 at 08:00 until the 18 at 06:00 UTC


170805Z 1708/1806 25010KT P6SM -SHSN OVC010
TEMPO 1708/1712 OVC008
FM171500 25010KT P6SM OVC010
FM172200 23007KT 2SM -SHSN OVC009
FM180000 23005KT 1 1/2SM -SHSN OVC006
KZOB FIR / North America



MET'MAP, your aeronautical weather chart ! - Copyright ORBIFLY December 2007 - Disclaimer

ORBIFLY MET'MAP TEAM :

Programming & Development : Alexandra Zaïnal
Concept & original design : Baudouin d'Aumeries
Assistance for programming : Marc-Olivier Méhu
Technical & hardware support : Manuel Goepfert

Contact : metmap@orbifly.com




SOURCES & CREDITS :

   NOAA       Earth
Advisory